createdAt,value
2022-09-13T00:00:09.701Z,23.90
2022-09-13T00:05:11.683Z,23.90
2022-09-13T00:10:13.628Z,25.40
2022-09-13T00:15:15.594Z,24.70
2022-09-13T00:20:17.807Z,24.10
2022-09-13T00:25:20.261Z,24.30
2022-09-13T00:30:22.192Z,24.40
2022-09-13T00:35:24.213Z,24.40
2022-09-13T00:40:26.189Z,24.40
2022-09-13T00:45:28.292Z,25.00
2022-09-13T00:50:35.227Z,25.80
2022-09-13T00:55:40.591Z,25.20
2022-09-13T01:00:43.196Z,24.70
2022-09-13T01:05:50.976Z,24.80
2022-09-13T01:10:53.803Z,25.30
2022-09-13T01:15:58.107Z,25.40
2022-09-13T01:21:18.668Z,24.90
2022-09-13T01:26:39.391Z,24.90
2022-09-13T01:31:47.209Z,24.80
2022-09-13T01:37:24.712Z,25.00
2022-09-13T01:42:29.971Z,25.10
2022-09-13T01:47:44.005Z,25.00
2022-09-13T01:52:45.941Z,25.20
2022-09-13T01:58:14.180Z,25.10
2022-09-13T02:03:23.664Z,25.40
2022-09-13T02:08:37.901Z,25.50
2022-09-13T02:13:43.055Z,26.00
2022-09-13T02:18:47.798Z,25.60
2022-09-13T02:23:54.390Z,25.60
2022-09-13T02:28:58.113Z,26.10
2022-09-13T02:34:03.319Z,25.60
2022-09-13T02:39:08.561Z,25.70
2022-09-13T02:44:15.642Z,25.80
2022-09-13T02:49:20.379Z,25.90
2022-09-13T02:54:28.227Z,26.40
2022-09-13T02:59:30.431Z,26.10
2022-09-13T03:04:33.120Z,26.20
2022-09-13T03:09:35.134Z,26.20
2022-09-13T03:14:49.279Z,26.20
2022-09-13T03:20:19.076Z,26.50
2022-09-13T03:25:39.496Z,26.50
2022-09-13T03:30:45.512Z,26.60
2022-09-13T03:35:56.715Z,26.90
2022-09-13T03:40:58.622Z,26.80
2022-09-13T03:46:03.725Z,26.90
2022-09-13T03:51:06.483Z,27.60
2022-09-13T03:56:15.508Z,27.60
2022-09-13T04:01:19.661Z,27.00
2022-09-13T04:06:21.597Z,27.10
2022-09-13T04:11:24.019Z,27.80
2022-09-13T04:21:28.421Z,27.10
2022-09-13T04:26:30.412Z,27.10
2022-09-13T04:31:32.391Z,27.20
2022-09-13T04:36:34.924Z,27.20
2022-09-13T04:41:36.838Z,27.20
2022-09-13T04:46:38.780Z,27.30
2022-09-13T04:51:40.724Z,27.40
2022-09-13T04:56:43.213Z,27.50
2022-09-13T05:01:45.292Z,27.50
2022-09-13T05:06:48.326Z,27.50
2022-09-13T05:11:50.827Z,28.20
2022-09-13T05:16:52.764Z,27.60
2022-09-13T05:21:54.703Z,27.60
2022-09-13T05:26:56.759Z,27.70
2022-09-13T05:31:59.025Z,28.00
2022-09-13T05:37:00.943Z,28.10
2022-09-13T05:42:02.947Z,28.60
2022-09-13T05:47:05.595Z,29.20
2022-09-13T05:52:07.604Z,28.40
2022-09-13T05:57:09.571Z,28.60
2022-09-13T06:02:11.575Z,28.90
2022-09-13T06:07:13.539Z,28.90
2022-09-13T06:12:15.399Z,29.60
2022-09-13T06:17:17.331Z,29.60
2022-09-13T06:22:19.447Z,29.10
2022-09-13T06:27:21.455Z,29.00
2022-09-13T06:32:23.458Z,29.60
2022-09-13T06:37:25.515Z,29.00
2022-09-13T06:42:27.469Z,28.90
2022-09-13T06:47:29.410Z,28.80
2022-09-13T06:52:31.307Z,28.80
2022-09-13T06:57:33.335Z,28.80
2022-09-13T07:02:35.594Z,28.70
2022-09-13T07:07:37.608Z,28.70
2022-09-13T07:12:42.392Z,28.40
2022-09-13T07:17:44.327Z,28.30
2022-09-13T07:22:46.231Z,28.20
2022-09-13T07:27:48.198Z,28.80
2022-09-13T07:32:50.138Z,28.10
2022-09-13T07:37:52.093Z,27.80
2022-09-13T07:42:54.183Z,27.80
2022-09-13T07:47:56.121Z,27.60
2022-09-13T07:52:58.066Z,27.40
2022-09-13T07:58:00.229Z,27.20
2022-09-13T08:03:02.138Z,27.20
2022-09-13T08:08:04.057Z,27.70
2022-09-13T08:13:05.951Z,27.70
2022-09-13T08:18:07.918Z,26.80
2022-09-13T08:23:12.992Z,26.70
2022-09-13T08:28:16.542Z,27.10
2022-09-13T08:33:18.518Z,26.20
2022-09-13T08:38:20.436Z,25.80
2022-09-13T08:43:22.385Z,26.20
2022-09-13T08:48:30.249Z,25.50
2022-09-13T08:53:35.380Z,25.30
2022-09-13T08:58:57.609Z,25.20
2022-09-13T09:04:06.838Z,25.20
2022-09-13T09:09:13.248Z,24.40
2022-09-13T09:14:19.851Z,24.50
2022-09-13T09:19:21.758Z,24.40
2022-09-13T09:24:25.402Z,23.80
2022-09-13T09:29:29.492Z,23.80
2022-09-13T09:34:44.495Z,23.40
2022-09-13T09:39:47.337Z,23.10
2022-09-13T09:44:52.354Z,23.10
2022-09-13T09:50:09.354Z,22.00
2022-09-13T09:55:31.634Z,22.50
2022-09-13T10:00:37.751Z,21.60
2022-09-13T10:05:39.937Z,21.50
2022-09-13T10:10:43.164Z,21.20
2022-09-13T10:15:55.295Z,21.00
2022-09-13T10:21:03.350Z,20.70
2022-09-13T10:26:08.342Z,20.30
2022-09-13T10:31:20.475Z,19.90
2022-09-13T10:41:53.998Z,19.60
2022-09-13T10:51:58.495Z,19.20
2022-09-13T10:57:00.461Z,18.90
2022-09-13T11:02:22.603Z,19.00
2022-09-13T11:07:27.735Z,19.00
2022-09-13T11:12:42.103Z,18.80
2022-09-13T11:17:50.017Z,18.70
2022-09-13T11:23:10.509Z,18.60
2022-09-13T11:28:12.463Z,18.80
2022-09-13T11:33:14.383Z,18.90
2022-09-13T11:38:24.575Z,18.60
2022-09-13T11:43:29.352Z,18.60
2022-09-13T11:48:57.552Z,18.30
2022-09-13T11:54:08.070Z,18.10
2022-09-13T11:59:28.733Z,18.10
2022-09-13T12:04:34.450Z,17.40
2022-09-13T12:09:46.550Z,17.10
2022-09-13T12:14:58.387Z,16.80
2022-09-13T12:20:01.675Z,16.70
2022-09-13T12:25:07.490Z,17.00
2022-09-13T12:30:09.458Z,17.60
2022-09-13T12:35:17.787Z,18.10
2022-09-13T12:40:38.709Z,18.00
2022-09-13T12:45:54.628Z,18.00
2022-09-13T12:51:08.039Z,18.40
2022-09-13T12:56:31.507Z,18.70
2022-09-13T13:01:34.232Z,18.30
2022-09-13T13:06:47.737Z,18.50
2022-09-13T13:11:51.620Z,18.20
2022-09-13T13:16:53.738Z,17.20
2022-09-13T13:21:55.759Z,16.90
2022-09-13T13:26:58.940Z,16.70
2022-09-13T13:32:02.399Z,16.50
2022-09-13T13:37:10.614Z,15.10
2022-09-13T13:42:23.039Z,14.90
2022-09-13T13:47:27.963Z,14.90
2022-09-13T13:52:37.853Z,14.90
2022-09-13T13:57:59.058Z,14.80
2022-09-13T14:03:07.163Z,14.80
2022-09-13T14:08:28.077Z,14.30
2022-09-13T14:13:30.060Z,14.70
2022-09-13T14:18:47.350Z,14.70
2022-09-13T14:23:49.443Z,14.70
2022-09-13T14:28:51.438Z,15.30
2022-09-13T14:33:53.391Z,15.20
2022-09-13T14:38:59.621Z,15.10
2022-09-13T14:44:34.080Z,14.90
2022-09-13T14:49:39.539Z,14.80
2022-09-13T14:54:48.489Z,14.90
2022-09-13T14:59:52.309Z,14.30
2022-09-13T15:04:55.823Z,14.60
2022-09-13T15:10:05.552Z,14.60
2022-09-13T15:15:21.187Z,14.60
2022-09-13T15:20:24.070Z,14.40
2022-09-13T15:25:27.528Z,14.80
2022-09-13T15:30:31.125Z,15.50
2022-09-13T15:35:37.324Z,15.40
2022-09-13T15:40:43.781Z,14.90
2022-09-13T15:45:46.206Z,15.00
2022-09-13T15:51:02.232Z,15.10
2022-09-13T15:56:04.996Z,14.00
2022-09-13T16:01:07.082Z,13.70
2022-09-13T16:06:19.544Z,13.20
2022-09-13T16:11:23.597Z,13.00
2022-09-13T16:16:25.628Z,12.90
2022-09-13T16:21:29.531Z,13.10
2022-09-13T16:26:32.828Z,13.30
2022-09-13T16:31:35.192Z,13.70
2022-09-13T16:36:37.245Z,14.10
2022-09-13T16:41:40.274Z,14.10
2022-09-13T16:46:42.776Z,13.90
2022-09-13T16:51:44.856Z,14.40
2022-09-13T16:56:46.798Z,14.70
2022-09-13T17:01:48.859Z,15.10
2022-09-13T17:06:50.890Z,15.30
2022-09-13T17:11:53.512Z,15.30
2022-09-13T17:16:56.625Z,15.50
2022-09-13T17:21:59.443Z,15.70
2022-09-13T17:27:01.992Z,16.10
2022-09-13T17:32:05.943Z,16.70
2022-09-13T17:37:08.132Z,16.90
2022-09-13T17:42:10.561Z,16.80
2022-09-13T17:47:12.530Z,17.20
2022-09-13T17:52:14.520Z,17.60
2022-09-13T17:57:16.441Z,17.70
2022-09-13T18:02:18.522Z,18.20
2022-09-13T18:07:20.671Z,18.70
2022-09-13T18:12:22.617Z,18.90
2022-09-13T18:17:24.561Z,19.60
2022-09-13T18:22:26.497Z,19.40
2022-09-13T18:27:28.438Z,19.50
2022-09-13T18:32:30.410Z,20.10
2022-09-13T18:37:33.216Z,20.20
2022-09-13T18:42:35.275Z,20.50
2022-09-13T18:47:37.282Z,20.90
2022-09-13T18:52:39.802Z,21.60
2022-09-13T18:57:41.851Z,21.30
2022-09-13T19:03:01.993Z,21.60
2022-09-13T19:08:10.156Z,21.80
2022-09-13T19:13:12.123Z,21.90
2022-09-13T19:18:14.265Z,22.30
2022-09-13T19:23:16.511Z,22.70
2022-09-13T19:28:18.471Z,22.80
2022-09-13T19:33:20.456Z,23.00
2022-09-13T19:38:22.359Z,23.20
2022-09-13T19:43:24.326Z,23.60
2022-09-13T19:48:38.135Z,23.70
2022-09-13T19:53:56.382Z,23.70
2022-09-13T19:59:00.123Z,23.60
2022-09-13T20:04:03.681Z,23.60
2022-09-13T20:09:06.092Z,24.30
2022-09-13T20:14:08.048Z,23.80
2022-09-13T20:19:36.418Z,24.70
2022-09-13T20:24:35.548Z,24.40
2022-09-13T20:29:37.836Z,24.60
2022-09-13T20:34:39.787Z,24.90
2022-09-13T20:39:41.910Z,25.00
2022-09-13T20:44:45.804Z,25.00
2022-09-13T20:49:47.783Z,25.20
2022-09-13T20:54:49.823Z,25.90
2022-09-13T20:59:51.952Z,25.40
2022-09-13T21:04:53.898Z,25.50
2022-09-13T21:09:59.534Z,25.60
2022-09-13T21:15:01.579Z,25.60
2022-09-13T21:20:03.646Z,26.40
2022-09-13T21:25:06.603Z,25.90
2022-09-13T21:30:08.679Z,26.50
2022-09-13T21:35:10.613Z,26.00
2022-09-13T21:40:15.259Z,26.70
2022-09-13T21:45:17.262Z,26.10
2022-09-13T21:50:19.239Z,26.90
2022-09-13T21:55:21.151Z,26.40
2022-09-13T22:00:23.131Z,26.60
2022-09-13T22:05:25.033Z,28.00
2022-09-13T22:10:26.953Z,27.60
2022-09-13T22:15:28.879Z,27.20
2022-09-13T22:20:30.821Z,27.40
2022-09-13T22:25:32.820Z,27.20
2022-09-13T22:30:35.281Z,28.00
2022-09-13T22:35:37.175Z,27.50
2022-09-13T22:40:39.107Z,27.60
2022-09-13T22:45:41.069Z,27.80
2022-09-13T22:50:43.038Z,28.00
2022-09-13T22:55:45.004Z,28.60
2022-09-13T23:00:47.138Z,28.30
2022-09-13T23:05:51.060Z,28.30
2022-09-13T23:10:53.095Z,29.00
2022-09-13T23:15:55.040Z,29.00
2022-09-13T23:20:57.007Z,28.80
2022-09-13T23:32:02.945Z,28.80
2022-09-13T23:37:05.097Z,29.60
2022-09-13T23:42:07.157Z,29.20
2022-09-13T23:47:09.313Z,29.30
2022-09-13T23:52:11.400Z,29.40
2022-09-13T23:57:13.397Z,29.60
